Weather History for Marshfield, MA

Change the Weather History Date:

Sunday, January 20, 2013

  Actual Average (KPYM) Record (KPYM)
Temperature  
Mean Temperature 44 °F -  
Max Temperature 55 °F 36 °F 61 °F (1951)
Min Temperature 32 °F 15 °F -8 °F (1971)
Degree Days  
Heating Degree Days 22    
Moisture  
Dew Point 28 °F    
Average Humidity 51    
Maximum Humidity 66    
Minimum Humidity 34    
Precipitation  
Precipitation 0.00 in - - ()
Sea Level Pressure  
Sea Level Pressure 29.74 in    
Wind  
Wind Speed 13 mph (SW)    
Max Wind Speed 23 mph    
Max Gust Speed 38 mph    
Visibility 10 miles    
Events      
Averages and records for this station are not official NWS values.
T = Trace of Precipitation, MM = Missing Value Source: NWS Daily Summary

Daily Weather History Graph

Daily Weather History Graph

Search for Another Location

Airport:

Trip Planner

Search our weather history database for the weather conditions in past years. The results will help you decide how hot, cold, wet, or windy it might be!

Date:

Astronomy

Jan. 20, 2013 Rise Set
Actual Time 7:05 AM EST 4:42 PM EST
Civil Twilight 6:35 AM EST 5:12 PM EST
Nautical Twilight 6:00 AM EST 5:47 PM EST
Astronomical Twilight 5:27 AM EST 6:20 PM EST
Moon 11:42 AM EST (1/20) 1:34 AM EST (1/20)
Length of Visible Light 10h 37m
Length of Day
9h 36m
Waxing Gibbous, 66% of the Moon is Illuminated
Jan 20
Waxing Gibbous
Jan 26
Full
Feb 3
Last Quarter
Feb 10
New
Feb 17
First Quarter

Hourly Weather History & Observations

Time (EST) Temp. Windchill Dew Point Humidity Pressure Visibility Wind Dir Wind Speed Gust Speed Precip Events Conditions
12:15 AM 46.4 °F 40.1 °F 33.8 °F 62% 29.92 in 10.0 mi South 15.0 mph 21.9 mph N/A   Clear
12:35 AM 46.4 °F 40.1 °F 33.8 °F 62% 29.90 in 10.0 mi SSW 15.0 mph 23.0 mph N/A   Clear
12:55 AM 46.4 °F 41.9 °F 33.8 °F 62% 29.89 in 10.0 mi SSW 9.2 mph 24.2 mph N/A   Clear
1:15 AM 46.4 °F 41.1 °F 33.8 °F 62% 29.88 in 10.0 mi South 11.5 mph 21.9 mph N/A   Clear
1:35 AM 46.4 °F 41.1 °F 35.6 °F 66% 29.87 in 10.0 mi South 11.5 mph 20.7 mph N/A   Clear
1:55 AM 46.4 °F 40.7 °F 35.6 °F 66% 29.86 in 10.0 mi South 12.7 mph 23.0 mph N/A   Clear
2:15 AM 46.4 °F 40.4 °F 35.6 °F 66% 29.85 in 10.0 mi SSW 13.8 mph 26.5 mph N/A   Clear
2:35 AM 46.4 °F 41.1 °F 35.6 °F 66% 29.85 in 10.0 mi SSW 11.5 mph 20.7 mph N/A   Clear
2:55 AM 46.4 °F 40.4 °F 35.6 °F 66% 29.83 in 10.0 mi South 13.8 mph 27.6 mph N/A   Clear
3:15 AM 46.4 °F 41.5 °F 35.6 °F 66% 29.82 in 10.0 mi SSW 10.4 mph 19.6 mph N/A   Clear
3:35 AM 46.4 °F 40.7 °F 35.6 °F 66% 29.81 in 10.0 mi SSW 12.7 mph 21.9 mph N/A   Clear
3:55 AM 46.4 °F 40.7 °F 35.6 °F 66% 29.80 in 10.0 mi South 12.7 mph 23.0 mph N/A   Clear
4:15 AM 46.4 °F 40.4 °F 35.6 °F 66% 29.79 in 10.0 mi SSW 13.8 mph 21.9 mph N/A   Clear
4:35 AM 46.4 °F 41.1 °F 35.6 °F 66% 29.79 in 10.0 mi SSW 11.5 mph 24.2 mph N/A   Clear
4:55 AM 46.4 °F 40.4 °F 35.6 °F 66% 29.77 in 10.0 mi SSW 13.8 mph 26.5 mph N/A   Clear
5:15 AM 46.4 °F 39.5 °F 35.6 °F 66% 29.76 in 10.0 mi SSW 17.3 mph 23.0 mph N/A   Clear
5:35 AM 46.4 °F 41.5 °F 35.6 °F 66% 29.74 in 10.0 mi SSW 10.4 mph 20.7 mph N/A   Clear
5:55 AM 46.4 °F 40.7 °F 35.6 °F 66% 29.73 in 10.0 mi South 12.7 mph 21.9 mph N/A   Clear
6:15 AM 44.6 °F 38.1 °F 33.8 °F 66% 29.72 in 10.0 mi SSW 13.8 mph 23.0 mph N/A   Clear
6:35 AM 44.6 °F 37.8 °F 33.8 °F 66% 29.71 in 10.0 mi SSW 15.0 mph 24.2 mph N/A   Clear
6:55 AM 44.6 °F 38.8 °F 33.8 °F 66% 29.70 in 10.0 mi SSW 11.5 mph 23.0 mph N/A   Clear
7:15 AM 44.6 °F 38.4 °F 33.8 °F 66% 29.68 in 10.0 mi SSW 12.7 mph 23.0 mph N/A   Clear
7:35 AM 46.4 °F 40.4 °F 33.8 °F 62% 29.69 in 10.0 mi SSW 13.8 mph 21.9 mph N/A   Clear
7:55 AM 46.4 °F 39.8 °F 33.8 °F 62% 29.68 in 10.0 mi SSW 16.1 mph 26.5 mph N/A   Clear
8:15 AM 46.4 °F 40.7 °F 33.8 °F 62% 29.68 in 10.0 mi SSW 12.7 mph 23.0 mph N/A   Clear
8:35 AM 48.2 °F - 33.8 °F 58% 29.67 in 10.0 mi SSW 15.0 mph 29.9 mph N/A   Clear
8:55 AM 48.2 °F - 33.8 °F 58% 29.67 in 10.0 mi SSW 17.3 mph 27.6 mph N/A   Clear
9:15 AM 48.2 °F - 33.8 °F 58% 29.67 in 10.0 mi SSW 15.0 mph 26.5 mph N/A   Clear
9:35 AM 50.0 °F - 33.8 °F 54% 29.66 in 10.0 mi South 15.0 mph 27.6 mph N/A   Clear
9:55 AM 51.8 °F - 33.8 °F 50% 29.66 in 10.0 mi SSW 11.5 mph 32.2 mph N/A   Clear
10:15 AM 51.8 °F - 32.0 °F 47% 29.65 in 10.0 mi SSW 16.1 mph 25.3 mph N/A   Clear
10:35 AM 51.8 °F - 32.0 °F 47% 29.64 in 10.0 mi SSW 18.4 mph 31.1 mph N/A   Clear
10:55 AM 53.6 °F - 32.0 °F 44% 29.63 in 10.0 mi SSW 12.7 mph 28.8 mph N/A   Clear
11:15 AM 53.6 °F - 32.0 °F 44% 29.61 in 10.0 mi SW 15.0 mph 25.3 mph N/A   Clear
11:55 AM 55.4 °F - 30.2 °F 38% 29.58 in 10.0 mi SW 23.0 mph 38.0 mph N/A   Clear
12:15 PM 55.4 °F - 30.2 °F 38% 29.57 in 10.0 mi SW 16.1 mph 28.8 mph N/A   Clear
12:35 PM 55.4 °F - 30.2 °F 38% 29.56 in 10.0 mi SW 12.7 mph 34.5 mph N/A   Clear
12:55 PM 55.4 °F - 30.2 °F 38% 29.56 in 10.0 mi SW 19.6 mph 31.1 mph N/A   Clear
1:15 PM 55.4 °F - 28.4 °F 36% 29.57 in 10.0 mi WSW 17.3 mph 34.5 mph N/A   Clear
1:35 PM 55.4 °F - 28.4 °F 36% 29.57 in 10.0 mi WSW 13.8 mph 24.2 mph N/A   Clear
1:55 PM 55.4 °F - 28.4 °F 36% 29.58 in 10.0 mi SW 20.7 mph 35.7 mph N/A   Clear
2:15 PM 55.4 °F - 28.4 °F 36% 29.59 in 10.0 mi WSW 16.1 mph 27.6 mph N/A   Scattered Clouds
2:35 PM 53.6 °F - 28.4 °F 38% 29.60 in 10.0 mi WSW 15.0 mph 26.5 mph N/A   Scattered Clouds
2:55 PM 53.6 °F - 28.4 °F 38% 29.61 in 10.0 mi WSW 15.0 mph 24.2 mph N/A   Scattered Clouds
3:15 PM 53.6 °F - 28.4 °F 38% 29.62 in 10.0 mi WSW 15.0 mph 27.6 mph N/A   Partly Cloudy
3:35 PM 51.8 °F - 30.2 °F 44% 29.64 in 10.0 mi WNW 13.8 mph 24.2 mph N/A   Scattered Clouds
3:55 PM 48.2 °F - 30.2 °F 50% 29.66 in 10.0 mi West 13.8 mph 24.2 mph N/A   Partly Cloudy
4:15 PM 48.2 °F - 30.2 °F 50% 29.67 in 10.0 mi West 10.4 mph - N/A   Partly Cloudy
4:35 PM 46.4 °F 41.9 °F 30.2 °F 53% 29.68 in 10.0 mi West 9.2 mph - N/A   Partly Cloudy
4:55 PM 46.4 °F 40.7 °F 28.4 °F 50% 29.69 in 10.0 mi West 12.7 mph 17.3 mph N/A   Clear
5:15 PM 46.4 °F 43.5 °F 26.6 °F 46% 29.71 in 10.0 mi West 5.8 mph - N/A   Clear
5:35 PM 44.6 °F 41.4 °F 24.8 °F 46% 29.72 in 10.0 mi West 5.8 mph - N/A   Clear
5:55 PM 44.6 °F 38.8 °F 23.0 °F 43% 29.74 in 10.0 mi West 11.5 mph 19.6 mph N/A   Partly Cloudy
6:15 PM 44.6 °F 40.2 °F 17.6 °F 34% 29.76 in 10.0 mi West 8.1 mph 18.4 mph N/A   Partly Cloudy
6:35 PM 42.8 °F 36.6 °F 17.6 °F 36% 29.78 in 10.0 mi West 11.5 mph 24.2 mph N/A   Clear
6:55 PM 39.2 °F 31.2 °F 17.6 °F 42% 29.79 in 10.0 mi WNW 13.8 mph 23.0 mph N/A   Clear
7:15 PM 39.2 °F 29.8 °F 17.6 °F 42% 29.81 in 10.0 mi West 18.4 mph 27.6 mph N/A   Clear
7:35 PM 37.4 °F 29.3 °F 17.6 °F 45% 29.81 in 10.0 mi West 12.7 mph 25.3 mph N/A   Clear
7:55 PM 37.4 °F 30.3 °F 17.6 °F 45% 29.82 in 10.0 mi West 10.4 mph 16.1 mph N/A   Clear
8:15 PM 35.6 °F 28.0 °F 17.6 °F 48% 29.83 in 10.0 mi West 10.4 mph 20.7 mph N/A   Clear
8:35 PM 35.6 °F 26.6 °F 15.8 °F 44% 29.85 in 10.0 mi West 13.8 mph 18.4 mph N/A   Clear
8:55 PM 35.6 °F 27.1 °F 14.0 °F 41% 29.86 in 10.0 mi West 12.7 mph 20.7 mph N/A   Clear
9:15 PM 33.8 °F 27.0 °F 14.0 °F 44% 29.88 in 10.0 mi West 8.1 mph 19.6 mph N/A   Clear
9:35 PM 33.8 °F 24.8 °F 12.2 °F 41% 29.89 in 10.0 mi WNW 12.7 mph 19.6 mph N/A   Clear
9:55 PM 32.0 °F 23.0 °F 10.4 °F 41% 29.90 in 10.0 mi West 11.5 mph 24.2 mph N/A   Clear
10:15 PM 32.0 °F 21.6 °F 10.4 °F 41% 29.91 in 10.0 mi West 15.0 mph 23.0 mph N/A   Clear
10:55 PM 32.0 °F 23.0 °F 10.4 °F 41% 29.92 in 10.0 mi West 11.5 mph 21.9 mph N/A   Clear
11:15 PM 32.0 °F 24.2 °F 10.4 °F 41% 29.93 in 10.0 mi West 9.2 mph 18.4 mph N/A   Clear
11:35 PM 32.0 °F 24.8 °F 10.4 °F 41% 29.93 in 10.0 mi West 8.1 mph - N/A   Clear
11:55 PM 32.0 °F 22.1 °F 10.4 °F 41% 29.93 in 10.0 mi West 13.8 mph 24.2 mph N/A   Clear